WEATHER DATA

YESTERDAY
Time Temp. Dewp. Hum. Wind dir Wind speed Wind gust Bar.
00:00 8.7 8.7 100 270 0.8 1.4 1027.6
00:21 8.7 8.7 100 270 0.3 1.4 1027.4
00:30 8.7 8.7 100 185 0.3 1.1 1027.4
00:40 8.6 8.6 100 270 0.3 1.4 1027.4
00:50 8.6 8.6 100 270 0.8 1.1 1027.3
01:01 8.5 8.5 100 237 0.3 1.1 1027.3
01:10 8.5 8.5 100 270 0.3 1.1 1027.2
01:20 8.4 8.4 100 219 0.3 1.1 1027.2
01:31 8.4 8.4 100 270 0.8 2.8 1027.2
01:41 8.4 8.4 100 270 0.8 2.2 1027
01:50 8.3 8.3 100 281 1.1 2.5 1027
02:00 8.2 8.2 100 270 0.8 2.2 1027
02:11 8.1 8.1 100 270 1.1 2.5 1026.9
02:20 8 8 100 237 0.8 2.2 1026.9
02:30 8 8 100 240 0.3 2.2 1026.9
02:41 7.9 7.9 100 258 0.8 2.2 1026.9
02:51 7.8 7.8 100 225 0.8 2.5 1027
03:00 7.7 7.7 100 225 0.3 1.4 1026.8
03:11 7.7 7.7 100 171 0.8 2.2 1026.7
03:21 7.6 7.6 100 209 0.3 1.4 1026.7
03:31 7.5 7.5 100 207 0.3 1.4 1026.6
03:40 7.5 7.5 100 270 0.8 2.2 1026.4
03:51 7.4 7.4 100 216 0.3 1.4 1026.4
04:01 7.4 7.4 100 228 0.8 2.5 1026.4
04:11 7.3 7.3 100 169 0.8 1.7 1026.3
04:21 7.3 7.3 100 253 0.8 2.2 1026.2
04:31 7.3 7.3 100 284 0.8 2.8 1026.2
04:41 7.2 7.2 100 251 0.8 2.2 1026.2
04:51 7.2 7.2 100 270 0.8 1.4 1026.1
05:02 7.2 7.2 100 180 0.8 2.2 1026.1
05:11 7.1 7.1 100 259 0.8 1.7 1026.1
05:21 7.1 7.1 100 190 0.8 1.7 1025.9
05:32 7.1 7.1 100 201 0.8 2.8 1025.6
05:41 7 7 100 221 0.8 1.4 1025.6
05:51 7 7 100 215 0.3 1.4 1025.5
06:01 7 7 100 201 0.3 1.4 1025.6
06:12 7 7 100 232 0.3 1.1 1025.6
06:21 7 7 100 186 0.3 0.8 1025.6
06:31 7 7 100 270 0.3 0.8 1025.5
06:42 6.9 6.9 100 225 0.3 0.8 1025.5
06:52 6.9 6.9 100 225 0.3 0.8 1025.6
07:01 6.9 6.9 100 270 0.3 1.4 1025.7
07:12 6.9 6.9 100 270 0.3 1.1 1025.7
07:22 6.9 6.9 100 270 0.3 1.1 1025.7
07:32 7 7 100 270 0.3 1.1 1025.6
07:41 7 7 100 297 0.8 1.1 1025.6
07:52 7 7 100 282 0.8 1.4 1025.6
08:02 7 7 100 270 0.3 1.1 1025.5
08:11 7.1 7.1 100 244 0.8 2.2 1025.5
08:22 7.2 7.2 100 270 0.3 1.1 1025.5
08:32 7.3 7.3 100 171 0.3 1.4 1025.4
08:42 7.4 7.4 100 161 0.3 1.7 1025.3
08:52 7.5 7.5 100 205 0.3 1.1 1025.3
09:02 7.6 7.6 100 151 0.3 1.4 1025.2
09:12 7.8 7.8 100 163 0.3 1.4 1025.1
09:22 8 8 100 190 0.3 1.7 1025.1
09:33 8.1 8.1 100 254 0.8 1.1 1024.9
09:42 8.2 8.2 100 270 0.3 1.1 1024.9
09:52 8.4 8.4 100 270 0.3 1.1 1024.7
10:02 8.8 8.8 100 180 0.3 1.1 1024.8
10:12 9 9 100 232 0.8 2.2 1024.9
10:22 9.2 9.2 100 240 0.8 1.7 1024.9
10:32 9.4 9.4 100 254 0.8 2.2 1024.9
10:43 9.5 9.5 100 238 0.8 2.5 1024.9
10:52 9.6 9.5 99 270 0.8 1.7 1024.9
11:02 9.8 9.7 99 291 0.8 2.5 1025
11:12 10.1 9.9 99 270 0.8 2.5 1025
11:23 10.5 10.2 98 244 1.7 3.6 1024.9
11:32 10.8 10.3 97 251 1.7 4.2 1024.9
11:42 11.1 10.5 96 270 1.1 2.5 1025
11:53 11.3 10.2 93 309 1.1 2.5 1024.9
12:02 11.6 10.3 92 282 1.1 2.5 1024.8
12:12 11.7 10.1 90 232 1.1 3.3 1024.8
12:23 11.9 10.1 89 248 1.1 2.8 1024.5
12:33 12.1 10.2 88 185 1.1 2.8 1024.4
12:43 12.2 9.9 86 158 1.1 3.6 1024.3
12:52 12.1 9.5 84 247 0.8 1.7 1024.2
13:03 12.2 9.6 84 270 0.3 1.1 1024.1
13:13 12.2 9.2 82 270 1.1 2.5 1024
13:22 12.7 9.7 82 259 0.8 2.8 1023.8
13:32 13.3 10.3 82 270 1.1 2.8 1023.8
13:43 13.7 10.3 80 281 1.4 3.3 1023.7
13:53 13.6 9.5 76 287 1.1 3.3 1023.7
14:03 13.7 9.7 77 330 1.4 3.6 1023.7
14:13 13.6 9.3 75 287 1.4 2.8 1023.6
14:23 13.6 9.5 76 259 1.4 5 1023.6
14:33 13.9 9.5 75 270 1.4 3.3 1023.5
14:43 14.1 9.5 74 280 1.7 4.2 1023.4
14:53 13.8 8.6 71 291 1.1 3.3 1023.4
15:03 13.8 8.6 71 275 1.7 4.7 1023.4
15:13 13.8 8.4 70 270 1.7 3.3 1023.3
15:23 13.7 8.1 69 250 1.4 3.9 1023.3
15:33 13.5 7.9 69 290 1.1 2.8 1023.2
15:43 13.4 8 70 254 1.7 4.2 1023.2
15:53 13.4 8 70 254 2.2 4.7 1023.3
16:03 13.2 7.4 68 270 1.1 2.5 1023.3
16:13 13.1 6.9 66 259 1.4 3.6 1023.2
16:23 13 6.8 66 248 1.7 3.9 1023.1
16:33 12.7 6.1 64 278 1.4 3.6 1022.9
16:43 12.4 5.8 64 249 2.2 4.7 1022.9
16:53 12.2 5.4 63 248 1.4 3.3 1022.9
17:04 12 5.2 63 242 1.4 3.6 1022.8
17:13 11.7 4.4 61 270 1.1 2.2 1022.8
17:23 11.4 4.2 61 270 1.1 3.3 1022.7
17:34 11.1 4.1 62 253 1.7 5.3 1022.8
17:44 10.8 3.6 61 270 0.3 1.1 1022.8
17:53 10.5 3.8 63 256 1.1 2.5 1022.8
18:03 10.2 3.3 62 255 1.7 3.6 1022.7
18:14 9.8 2.6 61 251 0.8 2.2 1022.8
18:23 9.5 2.8 63 249 1.1 1.7 1022.7
18:33 9.1 2.4 63 252 0.8 1.7 1022.7
18:44 8.7 2.1 63 225 0.8 1.7 1022.8
18:54 8.2 1.8 64 243 0.8 2.2 1022.8
19:03 7.7 1.3 64 237 0.3 1.1 1022.9
19:14 7.3 1.4 66 270 0.3 0.8 1022.9
19:24 6.8 1.3 68 233 0.3 0.8 1023
19:34 6.3 1 69 270 0.3 0.8 1023
19:43 5.9 0.9 70 239 0.3 0.8 1023
19:54 5.5 0.9 72 229 0.3 0.8 1023
20:04 5.1 0.5 72 270 0.3 1.1 1023
20:14 4.8 0.6 74 270 0.3 0.8 1023
20:24 4.4 0.2 74 229 0.3 0.8 1022.9
20:34 4.1 0.1 75 240 0.3 0.8 1022.9
20:44 3.8 0 76 229 0.3 0.8 1022.9
20:54 3.6 0 77 220 0.3 0.8 1022.9
21:14 3 -0.2 79 239 0.3 0.8 1022.8
21:24 2.8 -0.1 81 270 0.3 0.8 1022.8
21:44 2.5 -0.1 83 237 0.3 0.8 1022.7
21:54 2.3 -0.1 84 237 0.3 0.8 1022.7
22:04 2.2 -0.2 84 270 0.3 1.1 1022.6
22:14 2 -0.2 85 270 0.3 1.1 1022.7
22:24 1.9 -0.2 86 234 0.3 0.8 1022.7
22:34 1.7 -0.3 86 205 0.3 0.8 1022.6
22:44 1.6 -0.3 87 207 0.3 1.1 1022.5
22:54 1.5 -0.2 88 270 0.3 1.1 1022.5
23:04 1.5 -0.1 89 90 0.3 1.1 1022.4
23:15 1.4 -0.2 89 202 0.3 1.1 1022.3
23:24 1.3 -0.1 90 240 0.3 1.1 1022.3
23:34 1.2 -0.2 90 270 0.3 1.1 1022.1
23:44 1.1 -0.2 91 270 0.3 0.8 1022
23:54 1 -0.3 91 270 0.3 0.8 1021.9

DAY STATISTIC

2019-03-24
TEMPERATURE
AVERAGE
8.3
HIGH
14.1
14:43
LOW
1.0
23:54
PRESSURE
AVERAGE
1024.5
HIGH
1027.6
00:00
LOW
1021.9
23:54
DEWPOINT
AVERAGE
6.2
HIGH
10.5
11:42
LOW
-0.3
22:34
HUMIDITY
AVERAGE
88
HIGH
100
00:00
LOW
61
17:13
WIND SPEED
AVERAGE
0.7
HIGH
2.2
15:53
WIND GUST
AVERAGE
2.0
HIGH
5.3
17:34
WIND DIRECTION
PREVAILING
W
56%
N
0.0
NE
0.0
E
0.7
SE
0.7
S
11.3
SW
29.1
W
56.0
NW
2.1
TEMPERATURE (°C)
LOW
1.0
HIGH
14.1
AVERAGE
8.3
PRESSURE (hpa)
LOW
1021.9
HIGH
1027.6
AVERAGE
1024.5
DEVICE